Magnate — H9ZN — position and weather

sailwx.info

Track history (hours):
 
Tides and Currents Weather Stations Pressure Air Temp Water Temp Dewpoint Dewpoint Depression Visibility Wind Speed Wind Dir Waves Ship Positions

Magnate

Last reported at 2017-Mar-23 03:13 UTC. Time now 2017-Mar-23 04:19 UTC.
Position S 01°31' W 048°47'.

Length 140 m; draft 8.8 m.

Type: Cargo ship. MMSI: 357055000.

Date/timePositionNaut miles runAvg speedWind from/ knotsBaromVisibWave heightAir tempDewpointWater temp
2017-Mar-23 03:13S 01°31' W 048°47'0 0.0
2017-Mar-23 02:25S 01°31' W 048°47'0 0.1
2017-Mar-23 00:13S 01°32' W 048°47'0 0.0
2017-Mar-22 20:31S 01°32' W 048°47'0 0.0
2017-Mar-22 19:26S 01°32' W 048°47'0 0.0
2017-Mar-22 18:31S 01°32' W 048°47'0 0.1
2017-Mar-22 17:31S 01°32' W 048°47'7 7.0
2017-Mar-22 16:33S 01°26' W 048°43'1110.7
2017-Mar-22 15:33S 01°17' W 048°37'1110.8
2017-Mar-22 14:33S 01°08' W 048°31'8 7.7
2017-Mar-22 13:32S 01°01' W 048°27'8 7.8
2017-Mar-22 12:33S 00°54' W 048°27'11 9.5
2017-Mar-22 11:22S 00°42' W 048°25'1111.3
2017-Mar-22 10:24S 00°33' W 048°20'910.6
2017-Mar-22 09:31S 00°26' W 048°13'1111.1
2017-Mar-22 08:33S 00°20' W 048°04'1211.6
2017-Mar-22 07:33S 00°15' W 047°54'1310.8
2017-Mar-22 06:23S 00°05' W 047°47'  
Track history (hours):
 
Tides and Currents Weather Stations Pressure Air Temp Water Temp Dewpoint Dewpoint Depression Visibility Wind Speed Wind Dir Waves Ship Positions

Magnate

Last reported at 2017-Mar-23 03:13 UTC. Time now 2017-Mar-23 04:19 UTC.
Position S 01°31' W 048°47'.

Length 140 m; draft 8.8 m.

Type: Cargo ship. MMSI: 357055000.

Date/timePositionNaut miles runAvg speedWind from/ knotsBaromVisibWave heightAir tempDewpointWater temp
2017-Mar-23 03:13S 01°31' W 048°47'0 0.0
2017-Mar-23 02:25S 01°31' W 048°47'0 0.1
2017-Mar-23 00:13S 01°32' W 048°47'0 0.0
2017-Mar-22 20:31S 01°32' W 048°47'0 0.0
2017-Mar-22 19:26S 01°32' W 048°47'0 0.0
2017-Mar-22 18:31S 01°32' W 048°47'0 0.1
2017-Mar-22 17:31S 01°32' W 048°47'7 7.0
2017-Mar-22 16:33S 01°26' W 048°43'1110.7
2017-Mar-22 15:33S 01°17' W 048°37'1110.8
2017-Mar-22 14:33S 01°08' W 048°31'8 7.7
2017-Mar-22 13:32S 01°01' W 048°27'8 7.8
2017-Mar-22 12:33S 00°54' W 048°27'11 9.5
2017-Mar-22 11:22S 00°42' W 048°25'1111.3
2017-Mar-22 10:24S 00°33' W 048°20'910.6
2017-Mar-22 09:31S 00°26' W 048°13'1111.1
2017-Mar-22 08:33S 00°20' W 048°04'1211.6
2017-Mar-22 07:33S 00°15' W 047°54'1310.8
2017-Mar-22 06:23S 00°05' W 047°47'  

Dump ship's entire track history